sensor_id;sensor_type;location;lat;lon;timestamp;P1;durP1;ratioP1;P2;durP2;ratioP2
12861;SDS011;6499;66.348;14.134;2023-07-31T00:01:19;2.50;;;2.20;;
12861;SDS011;6499;66.348;14.134;2023-07-31T00:03:46;3.00;;;2.67;;
12861;SDS011;6499;66.348;14.134;2023-07-31T00:06:12;2.30;;;2.10;;
12861;SDS011;6499;66.348;14.134;2023-07-31T00:08:39;2.90;;;2.20;;
12861;SDS011;6499;66.348;14.134;2023-07-31T00:11:07;2.80;;;2.47;;
12861;SDS011;6499;66.348;14.134;2023-07-31T00:13:33;3.80;;;2.13;;
12861;SDS011;6499;66.348;14.134;2023-07-31T00:16:00;2.87;;;2.30;;
12861;SDS011;6499;66.348;14.134;2023-07-31T00:18:26;3.00;;;2.27;;
12861;SDS011;6499;66.348;14.134;2023-07-31T00:20:53;2.40;;;2.20;;
12861;SDS011;6499;66.348;14.134;2023-07-31T00:23:19;2.83;;;2.20;;
12861;SDS011;6499;66.348;14.134;2023-07-31T00:25:46;2.50;;;2.27;;
12861;SDS011;6499;66.348;14.134;2023-07-31T00:28:14;3.67;;;2.37;;
12861;SDS011;6499;66.348;14.134;2023-07-31T00:30:40;2.47;;;2.27;;
12861;SDS011;6499;66.348;14.134;2023-07-31T00:33:07;2.83;;;2.60;;
12861;SDS011;6499;66.348;14.134;2023-07-31T00:35:33;2.60;;;2.40;;
12861;SDS011;6499;66.348;14.134;2023-07-31T00:38:00;3.30;;;2.27;;
12861;SDS011;6499;66.348;14.134;2023-07-31T00:40:27;2.40;;;2.20;;
12861;SDS011;6499;66.348;14.134;2023-07-31T00:42:54;2.40;;;2.20;;
12861;SDS011;6499;66.348;14.134;2023-07-31T00:45:22;3.27;;;2.30;;
12861;SDS011;6499;66.348;14.134;2023-07-31T00:47:52;3.77;;;2.57;;
12861;SDS011;6499;66.348;14.134;2023-07-31T00:50:18;2.67;;;2.47;;
12861;SDS011;6499;66.348;14.134;2023-07-31T00:52:48;3.27;;;2.50;;
12861;SDS011;6499;66.348;14.134;2023-07-31T00:55:14;2.23;;;2.07;;
12861;SDS011;6499;66.348;14.134;2023-07-31T00:57:41;2.40;;;2.20;;
12861;SDS011;6499;66.348;14.134;2023-07-31T01:00:08;2.50;;;2.30;;
12861;SDS011;6499;66.348;14.134;2023-07-31T01:02:36;2.50;;;2.30;;
12861;SDS011;6499;66.348;14.134;2023-07-31T01:05:03;2.40;;;2.13;;
12861;SDS011;6499;66.348;14.134;2023-07-31T01:07:31;2.60;;;2.40;;
12861;SDS011;6499;66.348;14.134;2023-07-31T01:10:02;2.43;;;2.20;;
12861;SDS011;6499;66.348;14.134;2023-07-31T01:12:30;2.50;;;2.30;;
12861;SDS011;6499;66.348;14.134;2023-07-31T01:15:04;2.50;;;2.30;;
12861;SDS011;6499;66.348;14.134;2023-07-31T01:17:31;2.60;;;2.40;;
12861;SDS011;6499;66.348;14.134;2023-07-31T01:19:59;2.87;;;2.47;;
12861;SDS011;6499;66.348;14.134;2023-07-31T01:22:30;2.33;;;2.10;;
12861;SDS011;6499;66.348;14.134;2023-07-31T01:25:00;3.20;;;2.57;;
12861;SDS011;6499;66.348;14.134;2023-07-31T01:27:40;3.03;;;2.73;;
12861;SDS011;6499;66.348;14.134;2023-07-31T01:30:18;2.47;;;2.27;;
12861;SDS011;6499;66.348;14.134;2023-07-31T01:32:47;2.60;;;2.23;;
12861;SDS011;6499;66.348;14.134;2023-07-31T01:35:14;3.47;;;2.47;;
12861;SDS011;6499;66.348;14.134;2023-07-31T01:37:40;3.10;;;2.33;;
12861;SDS011;6499;66.348;14.134;2023-07-31T01:40:07;2.63;;;2.40;;
12861;SDS011;6499;66.348;14.134;2023-07-31T01:42:34;2.80;;;2.20;;
12861;SDS011;6499;66.348;14.134;2023-07-31T01:45:02;2.87;;;2.30;;
12861;SDS011;6499;66.348;14.134;2023-07-31T01:47:28;2.60;;;2.40;;
12861;SDS011;6499;66.348;14.134;2023-07-31T01:49:55;2.80;;;2.50;;
12861;SDS011;6499;66.348;14.134;2023-07-31T01:52:21;2.80;;;2.47;;
12861;SDS011;6499;66.348;14.134;2023-07-31T01:54:48;3.13;;;2.50;;
12861;SDS011;6499;66.348;14.134;2023-07-31T01:57:14;2.63;;;2.43;;
12861;SDS011;6499;66.348;14.134;2023-07-31T01:59:41;2.80;;;2.60;;
12861;SDS011;6499;66.348;14.134;2023-07-31T02:02:09;2.67;;;2.47;;
12861;SDS011;6499;66.348;14.134;2023-07-31T02:04:35;2.80;;;2.60;;
12861;SDS011;6499;66.348;14.134;2023-07-31T02:07:03;2.47;;;2.27;;
12861;SDS011;6499;66.348;14.134;2023-07-31T02:09:30;2.60;;;2.40;;
12861;SDS011;6499;66.348;14.134;2023-07-31T02:11:56;3.00;;;2.63;;
12861;SDS011;6499;66.348;14.134;2023-07-31T02:14:23;2.40;;;2.20;;
12861;SDS011;6499;66.348;14.134;2023-07-31T02:16:49;2.93;;;2.43;;
12861;SDS011;6499;66.348;14.134;2023-07-31T02:19:20;3.97;;;2.50;;
12861;SDS011;6499;66.348;14.134;2023-07-31T02:21:47;2.57;;;2.20;;
12861;SDS011;6499;66.348;14.134;2023-07-31T02:24:13;2.40;;;2.20;;
12861;SDS011;6499;66.348;14.134;2023-07-31T02:26:40;3.10;;;2.33;;
12861;SDS011;6499;66.348;14.134;2023-07-31T02:29:07;2.50;;;2.30;;
12861;SDS011;6499;66.348;14.134;2023-07-31T02:31:33;2.57;;;2.33;;
12861;SDS011;6499;66.348;14.134;2023-07-31T02:34:00;2.90;;;2.20;;
12861;SDS011;6499;66.348;14.134;2023-07-31T02:36:28;2.57;;;2.37;;
12861;SDS011;6499;66.348;14.134;2023-07-31T02:38:54;2.47;;;2.20;;
12861;SDS011;6499;66.348;14.134;2023-07-31T02:41:20;3.03;;;2.63;;
12861;SDS011;6499;66.348;14.134;2023-07-31T02:43:47;2.60;;;2.40;;
12861;SDS011;6499;66.348;14.134;2023-07-31T02:46:13;2.77;;;2.57;;
12861;SDS011;6499;66.348;14.134;2023-07-31T02:48:40;2.57;;;2.37;;
12861;SDS011;6499;66.348;14.134;2023-07-31T02:51:07;2.40;;;2.20;;
12861;SDS011;6499;66.348;14.134;2023-07-31T02:53:34;2.60;;;2.40;;
12861;SDS011;6499;66.348;14.134;2023-07-31T02:56:01;2.60;;;2.40;;
12861;SDS011;6499;66.348;14.134;2023-07-31T02:58:28;2.40;;;2.20;;
12861;SDS011;6499;66.348;14.134;2023-07-31T03:00:55;2.53;;;2.33;;
12861;SDS011;6499;66.348;14.134;2023-07-31T03:03:21;3.27;;;2.60;;
12861;SDS011;6499;66.348;14.134;2023-07-31T03:05:48;2.27;;;2.07;;
12861;SDS011;6499;66.348;14.134;2023-07-31T03:08:14;3.43;;;2.30;;
12861;SDS011;6499;66.348;14.134;2023-07-31T03:10:42;2.73;;;2.20;;
12861;SDS011;6499;66.348;14.134;2023-07-31T03:13:09;2.60;;;2.40;;
12861;SDS011;6499;66.348;14.134;2023-07-31T03:15:35;2.60;;;2.40;;
12861;SDS011;6499;66.348;14.134;2023-07-31T03:18:02;3.03;;;2.67;;
12861;SDS011;6499;66.348;14.134;2023-07-31T03:20:28;3.23;;;2.80;;
12861;SDS011;6499;66.348;14.134;2023-07-31T03:22:55;2.50;;;2.30;;
12861;SDS011;6499;66.348;14.134;2023-07-31T03:25:22;2.30;;;2.10;;
12861;SDS011;6499;66.348;14.134;2023-07-31T03:27:50;4.47;;;2.23;;
12861;SDS011;6499;66.348;14.134;2023-07-31T03:30:16;2.13;;;2.00;;
12861;SDS011;6499;66.348;14.134;2023-07-31T03:32:43;2.50;;;2.30;;
12861;SDS011;6499;66.348;14.134;2023-07-31T03:35:09;2.50;;;2.30;;
12861;SDS011;6499;66.348;14.134;2023-07-31T03:37:36;2.40;;;2.20;;
12861;SDS011;6499;66.348;14.134;2023-07-31T03:40:03;2.27;;;2.10;;
12861;SDS011;6499;66.348;14.134;2023-07-31T03:42:30;2.30;;;2.10;;
12861;SDS011;6499;66.348;14.134;2023-07-31T03:44:58;2.50;;;2.30;;
12861;SDS011;6499;66.348;14.134;2023-07-31T03:47:24;2.80;;;2.60;;
12861;SDS011;6499;66.348;14.134;2023-07-31T03:49:51;2.73;;;2.20;;
12861;SDS011;6499;66.348;14.134;2023-07-31T03:52:18;2.40;;;2.20;;
12861;SDS011;6499;66.348;14.134;2023-07-31T03:54:44;2.63;;;2.43;;
12861;SDS011;6499;66.348;14.134;2023-07-31T03:57:11;2.70;;;2.50;;
12861;SDS011;6499;66.348;14.134;2023-07-31T03:59:37;2.70;;;2.20;;
12861;SDS011;6499;66.348;14.134;2023-07-31T04:02:06;2.43;;;2.17;;
12861;SDS011;6499;66.348;14.134;2023-07-31T04:04:32;2.57;;;2.37;;
12861;SDS011;6499;66.348;14.134;2023-07-31T04:06:59;3.00;;;2.70;;
12861;SDS011;6499;66.348;14.134;2023-07-31T04:09:27;2.67;;;2.47;;
12861;SDS011;6499;66.348;14.134;2023-07-31T04:11:53;2.77;;;2.53;;
12861;SDS011;6499;66.348;14.134;2023-07-31T04:14:20;2.90;;;2.60;;
12861;SDS011;6499;66.348;14.134;2023-07-31T04:16:47;2.57;;;2.37;;
12861;SDS011;6499;66.348;14.134;2023-07-31T04:19:15;2.50;;;2.30;;
12861;SDS011;6499;66.348;14.134;2023-07-31T04:21:42;2.80;;;2.60;;
12861;SDS011;6499;66.348;14.134;2023-07-31T04:24:08;3.00;;;2.23;;
12861;SDS011;6499;66.348;14.134;2023-07-31T04:26:35;3.23;;;2.53;;
12861;SDS011;6499;66.348;14.134;2023-07-31T04:29:01;2.63;;;2.40;;
12861;SDS011;6499;66.348;14.134;2023-07-31T04:31:28;2.70;;;2.50;;
12861;SDS011;6499;66.348;14.134;2023-07-31T04:33:55;2.37;;;2.17;;
12861;SDS011;6499;66.348;14.134;2023-07-31T04:36:23;2.57;;;2.37;;
12861;SDS011;6499;66.348;14.134;2023-07-31T04:38:49;2.60;;;2.33;;
12861;SDS011;6499;66.348;14.134;2023-07-31T04:41:16;2.57;;;2.37;;
12861;SDS011;6499;66.348;14.134;2023-07-31T04:43:42;2.50;;;2.30;;
12861;SDS011;6499;66.348;14.134;2023-07-31T04:46:09;2.53;;;2.33;;
12861;SDS011;6499;66.348;14.134;2023-07-31T04:48:35;2.37;;;2.13;;
12861;SDS011;6499;66.348;14.134;2023-07-31T04:51:02;2.50;;;2.30;;
12861;SDS011;6499;66.348;14.134;2023-07-31T04:53:30;2.47;;;2.27;;
12861;SDS011;6499;66.348;14.134;2023-07-31T04:55:56;2.37;;;2.17;;
12861;SDS011;6499;66.348;14.134;2023-07-31T04:58:23;2.33;;;2.10;;
12861;SDS011;6499;66.348;14.134;2023-07-31T05:00:49;2.20;;;2.00;;
12861;SDS011;6499;66.348;14.134;2023-07-31T05:03:16;2.07;;;1.97;;
12861;SDS011;6499;66.348;14.134;2023-07-31T05:05:42;2.23;;;2.03;;
12861;SDS011;6499;66.348;14.134;2023-07-31T05:08:09;2.23;;;2.03;;
12861;SDS011;6499;66.348;14.134;2023-07-31T05:10:37;2.30;;;2.10;;
12861;SDS011;6499;66.348;14.134;2023-07-31T05:13:03;2.30;;;2.10;;
12861;SDS011;6499;66.348;14.134;2023-07-31T05:15:30;2.30;;;2.10;;
12861;SDS011;6499;66.348;14.134;2023-07-31T05:17:57;2.50;;;2.30;;
12861;SDS011;6499;66.348;14.134;2023-07-31T05:20:23;2.00;;;1.90;;
12861;SDS011;6499;66.348;14.134;2023-07-31T05:22:50;2.70;;;2.50;;
12861;SDS011;6499;66.348;14.134;2023-07-31T05:25:17;3.30;;;3.10;;
12861;SDS011;6499;66.348;14.134;2023-07-31T05:27:45;2.43;;;2.27;;
12861;SDS011;6499;66.348;14.134;2023-07-31T05:30:11;2.20;;;2.00;;
12861;SDS011;6499;66.348;14.134;2023-07-31T05:32:38;2.60;;;2.40;;
12861;SDS011;6499;66.348;14.134;2023-07-31T05:35:05;2.40;;;2.20;;
12861;SDS011;6499;66.348;14.134;2023-07-31T05:37:31;2.40;;;2.20;;
12861;SDS011;6499;66.348;14.134;2023-07-31T05:39:58;2.23;;;2.03;;
12861;SDS011;6499;66.348;14.134;2023-07-31T05:42:24;2.00;;;1.90;;
12861;SDS011;6499;66.348;14.134;2023-07-31T05:44:52;2.30;;;2.10;;
12861;SDS011;6499;66.348;14.134;2023-07-31T05:47:19;2.37;;;2.20;;
12861;SDS011;6499;66.348;14.134;2023-07-31T05:49:46;3.23;;;2.40;;
12861;SDS011;6499;66.348;14.134;2023-07-31T05:52:12;2.40;;;2.20;;
12861;SDS011;6499;66.348;14.134;2023-07-31T05:54:39;2.37;;;2.17;;
12861;SDS011;6499;66.348;14.134;2023-07-31T05:57:05;2.23;;;2.03;;
12861;SDS011;6499;66.348;14.134;2023-07-31T05:59:32;2.30;;;2.10;;
12861;SDS011;6499;66.348;14.134;2023-07-31T06:02:02;2.03;;;1.90;;
12861;SDS011;6499;66.348;14.134;2023-07-31T06:04:29;2.20;;;2.03;;
12861;SDS011;6499;66.348;14.134;2023-07-31T06:06:55;2.27;;;1.90;;
12861;SDS011;6499;66.348;14.134;2023-07-31T06:09:22;2.20;;;2.00;;
12861;SDS011;6499;66.348;14.134;2023-07-31T06:11:51;2.43;;;2.07;;
12861;SDS011;6499;66.348;14.134;2023-07-31T06:14:17;2.00;;;1.90;;
12861;SDS011;6499;66.348;14.134;2023-07-31T06:16:44;1.90;;;1.80;;
12861;SDS011;6499;66.348;14.134;2023-07-31T06:19:12;1.70;;;1.60;;
12861;SDS011;6499;66.348;14.134;2023-07-31T06:21:38;1.90;;;1.80;;
12861;SDS011;6499;66.348;14.134;2023-07-31T06:24:07;2.20;;;2.00;;
12861;SDS011;6499;66.348;14.134;2023-07-31T06:26:33;2.00;;;1.80;;
12861;SDS011;6499;66.348;14.134;2023-07-31T06:29:00;3.00;;;2.10;;
12861;SDS011;6499;66.348;14.134;2023-07-31T06:31:26;1.90;;;1.80;;
12861;SDS011;6499;66.348;14.134;2023-07-31T06:33:53;1.93;;;1.83;;
12861;SDS011;6499;66.348;14.134;2023-07-31T06:36:21;2.10;;;1.90;;
12861;SDS011;6499;66.348;14.134;2023-07-31T06:38:48;2.00;;;1.90;;
12861;SDS011;6499;66.348;14.134;2023-07-31T06:41:15;1.80;;;1.70;;
12861;SDS011;6499;66.348;14.134;2023-07-31T06:43:41;2.00;;;1.90;;
12861;SDS011;6499;66.348;14.134;2023-07-31T06:46:08;2.87;;;1.97;;
12861;SDS011;6499;66.348;14.134;2023-07-31T06:48:36;2.07;;;1.93;;
12861;SDS011;6499;66.348;14.134;2023-07-31T06:51:03;2.03;;;1.93;;
12861;SDS011;6499;66.348;14.134;2023-07-31T06:53:30;2.00;;;1.90;;
12861;SDS011;6499;66.348;14.134;2023-07-31T06:55:57;1.70;;;1.60;;
12861;SDS011;6499;66.348;14.134;2023-07-31T06:58:23;1.73;;;1.63;;
12861;SDS011;6499;66.348;14.134;2023-07-31T07:00:50;1.93;;;1.80;;
12861;SDS011;6499;66.348;14.134;2023-07-31T07:03:17;1.70;;;1.60;;
12861;SDS011;6499;66.348;14.134;2023-07-31T07:05:44;2.20;;;2.00;;
12861;SDS011;6499;66.348;14.134;2023-07-31T07:08:10;1.80;;;1.70;;
12861;SDS011;6499;66.348;14.134;2023-07-31T07:10:38;1.80;;;1.70;;
12861;SDS011;6499;66.348;14.134;2023-07-31T07:13:05;2.20;;;2.00;;
12861;SDS011;6499;66.348;14.134;2023-07-31T07:15:31;1.90;;;1.80;;
12861;SDS011;6499;66.348;14.134;2023-07-31T07:17:58;2.13;;;1.90;;
12861;SDS011;6499;66.348;14.134;2023-07-31T07:20:24;2.03;;;1.87;;
12861;SDS011;6499;66.348;14.134;2023-07-31T07:22:51;2.10;;;1.90;;
12861;SDS011;6499;66.348;14.134;2023-07-31T07:25:17;2.20;;;2.00;;
12861;SDS011;6499;66.348;14.134;2023-07-31T07:27:45;1.93;;;1.70;;
12861;SDS011;6499;66.348;14.134;2023-07-31T07:30:12;2.10;;;1.90;;
12861;SDS011;6499;66.348;14.134;2023-07-31T07:32:39;3.13;;;2.00;;
12861;SDS011;6499;66.348;14.134;2023-07-31T07:35:06;1.97;;;1.80;;
12861;SDS011;6499;66.348;14.134;2023-07-31T07:37:32;2.27;;;2.00;;
12861;SDS011;6499;66.348;14.134;2023-07-31T07:39:59;2.17;;;1.90;;
12861;SDS011;6499;66.348;14.134;2023-07-31T07:42:28;2.10;;;2.00;;
12861;SDS011;6499;66.348;14.134;2023-07-31T07:44:56;2.10;;;1.90;;
12861;SDS011;6499;66.348;14.134;2023-07-31T07:47:23;2.07;;;1.97;;
12861;SDS011;6499;66.348;14.134;2023-07-31T07:49:49;2.10;;;2.00;;
12861;SDS011;6499;66.348;14.134;2023-07-31T07:52:16;2.30;;;2.10;;
12861;SDS011;6499;66.348;14.134;2023-07-31T07:54:42;2.40;;;2.20;;
12861;SDS011;6499;66.348;14.134;2023-07-31T07:57:09;1.90;;;1.80;;
12861;SDS011;6499;66.348;14.134;2023-07-31T07:59:35;2.10;;;2.00;;
12861;SDS011;6499;66.348;14.134;2023-07-31T08:02:03;1.90;;;1.80;;
12861;SDS011;6499;66.348;14.134;2023-07-31T08:04:30;2.63;;;2.20;;
12861;SDS011;6499;66.348;14.134;2023-07-31T08:06:56;2.20;;;2.00;;
12861;SDS011;6499;66.348;14.134;2023-07-31T08:09:23;2.40;;;2.20;;
12861;SDS011;6499;66.348;14.134;2023-07-31T08:11:49;2.20;;;2.10;;
12861;SDS011;6499;66.348;14.134;2023-07-31T08:14:16;2.73;;;2.00;;
12861;SDS011;6499;66.348;14.134;2023-07-31T08:16:42;2.27;;;2.07;;
12861;SDS011;6499;66.348;14.134;2023-07-31T08:19:10;2.17;;;2.00;;
12861;SDS011;6499;66.348;14.134;2023-07-31T08:21:37;2.80;;;2.27;;
12861;SDS011;6499;66.348;14.134;2023-07-31T08:24:03;2.17;;;2.07;;
12861;SDS011;6499;66.348;14.134;2023-07-31T08:26:30;2.13;;;2.03;;
12861;SDS011;6499;66.348;14.134;2023-07-31T08:28:57;2.37;;;2.07;;
12861;SDS011;6499;66.348;14.134;2023-07-31T08:31:24;2.10;;;1.90;;
12861;SDS011;6499;66.348;14.134;2023-07-31T08:33:52;2.20;;;2.00;;
12861;SDS011;6499;66.348;14.134;2023-07-31T08:36:20;2.57;;;2.30;;
12861;SDS011;6499;66.348;14.134;2023-07-31T08:38:46;2.20;;;2.10;;
12861;SDS011;6499;66.348;14.134;2023-07-31T08:41:13;2.43;;;2.20;;
12861;SDS011;6499;66.348;14.134;2023-07-31T08:43:41;2.00;;;1.90;;
12861;SDS011;6499;66.348;14.134;2023-07-31T08:46:08;2.23;;;2.03;;
12861;SDS011;6499;66.348;14.134;2023-07-31T08:48:35;2.10;;;2.00;;
12861;SDS011;6499;66.348;14.134;2023-07-31T08:51:02;2.40;;;2.20;;
12861;SDS011;6499;66.348;14.134;2023-07-31T08:53:29;2.50;;;2.30;;
12861;SDS011;6499;66.348;14.134;2023-07-31T08:55:56;2.10;;;2.00;;
12861;SDS011;6499;66.348;14.134;2023-07-31T08:58:24;2.00;;;1.90;;
12861;SDS011;6499;66.348;14.134;2023-07-31T09:00:51;2.40;;;2.20;;
12861;SDS011;6499;66.348;14.134;2023-07-31T09:03:18;2.20;;;2.10;;
12861;SDS011;6499;66.348;14.134;2023-07-31T09:05:46;2.00;;;1.90;;
12861;SDS011;6499;66.348;14.134;2023-07-31T09:08:13;2.30;;;2.10;;
12861;SDS011;6499;66.348;14.134;2023-07-31T09:10:42;2.23;;;2.13;;
12861;SDS011;6499;66.348;14.134;2023-07-31T09:13:09;1.90;;;1.80;;
12861;SDS011;6499;66.348;14.134;2023-07-31T09:15:36;2.13;;;2.00;;
12861;SDS011;6499;66.348;14.134;2023-07-31T09:18:03;2.70;;;1.93;;
12861;SDS011;6499;66.348;14.134;2023-07-31T09:20:30;1.90;;;1.67;;
12861;SDS011;6499;66.348;14.134;2023-07-31T09:23:04;2.23;;;2.00;;
12861;SDS011;6499;66.348;14.134;2023-07-31T09:25:31;2.10;;;1.90;;
12861;SDS011;6499;66.348;14.134;2023-07-31T09:27:59;2.10;;;1.90;;
12861;SDS011;6499;66.348;14.134;2023-07-31T09:30:26;2.07;;;1.87;;
12861;SDS011;6499;66.348;14.134;2023-07-31T09:32:59;2.03;;;1.93;;
12861;SDS011;6499;66.348;14.134;2023-07-31T09:35:27;1.80;;;1.70;;
12861;SDS011;6499;66.348;14.134;2023-07-31T09:37:55;2.20;;;2.00;;
12861;SDS011;6499;66.348;14.134;2023-07-31T09:40:25;1.73;;;1.63;;
12861;SDS011;6499;66.348;14.134;2023-07-31T09:42:52;1.70;;;1.60;;
12861;SDS011;6499;66.348;14.134;2023-07-31T09:45:20;1.83;;;1.73;;
12861;SDS011;6499;66.348;14.134;2023-07-31T09:47:47;2.00;;;1.90;;
12861;SDS011;6499;66.348;14.134;2023-07-31T09:50:14;2.10;;;1.80;;
12861;SDS011;6499;66.348;14.134;2023-07-31T09:52:41;2.20;;;2.00;;
12861;SDS011;6499;66.348;14.134;2023-07-31T09:55:08;1.90;;;1.80;;
12861;SDS011;6499;66.348;14.134;2023-07-31T09:57:35;1.80;;;1.70;;
12861;SDS011;6499;66.348;14.134;2023-07-31T10:00:02;1.77;;;1.67;;
12861;SDS011;6499;66.348;14.134;2023-07-31T10:02:30;2.03;;;1.87;;
12861;SDS011;6499;66.348;14.134;2023-07-31T10:04:58;1.70;;;1.60;;
12861;SDS011;6499;66.348;14.134;2023-07-31T10:07:27;1.60;;;1.50;;
12861;SDS011;6499;66.348;14.134;2023-07-31T10:09:55;1.80;;;1.70;;
12861;SDS011;6499;66.348;14.134;2023-07-31T10:12:22;2.63;;;1.60;;
12861;SDS011;6499;66.348;14.134;2023-07-31T10:14:53;1.80;;;1.70;;
12861;SDS011;6499;66.348;14.134;2023-07-31T10:17:20;2.97;;;1.73;;
12861;SDS011;6499;66.348;14.134;2023-07-31T10:19:49;1.87;;;1.77;;
12861;SDS011;6499;66.348;14.134;2023-07-31T10:22:15;2.03;;;1.93;;
12861;SDS011;6499;66.348;14.134;2023-07-31T10:24:43;1.80;;;1.70;;
12861;SDS011;6499;66.348;14.134;2023-07-31T10:27:11;2.00;;;1.80;;
12861;SDS011;6499;66.348;14.134;2023-07-31T10:29:37;1.90;;;1.70;;
12861;SDS011;6499;66.348;14.134;2023-07-31T10:32:05;1.70;;;1.60;;
12861;SDS011;6499;66.348;14.134;2023-07-31T10:34:33;1.80;;;1.70;;
12861;SDS011;6499;66.348;14.134;2023-07-31T10:39:43;1.83;;;1.50;;
12861;SDS011;6499;66.348;14.134;2023-07-31T10:42:10;2.57;;;1.60;;
12861;SDS011;6499;66.348;14.134;2023-07-31T10:44:37;1.70;;;1.60;;
12861;SDS011;6499;66.348;14.134;2023-07-31T10:47:04;1.93;;;1.40;;
12861;SDS011;6499;66.348;14.134;2023-07-31T10:49:31;1.43;;;1.33;;
12861;SDS011;6499;66.348;14.134;2023-07-31T10:51:58;1.43;;;1.33;;
12861;SDS011;6499;66.348;14.134;2023-07-31T10:54:25;2.37;;;1.40;;
12861;SDS011;6499;66.348;14.134;2023-07-31T10:56:56;1.60;;;1.50;;
12861;SDS011;6499;66.348;14.134;2023-07-31T10:59:26;1.50;;;1.40;;
12861;SDS011;6499;66.348;14.134;2023-07-31T11:01:53;1.40;;;1.30;;
12861;SDS011;6499;66.348;14.134;2023-07-31T11:04:22;1.70;;;1.50;;
12861;SDS011;6499;66.348;14.134;2023-07-31T11:06:56;1.63;;;1.53;;
12861;SDS011;6499;66.348;14.134;2023-07-31T11:09:24;1.60;;;1.30;;
12861;SDS011;6499;66.348;14.134;2023-07-31T11:11:51;1.67;;;1.30;;
12861;SDS011;6499;66.348;14.134;2023-07-31T11:14:19;1.50;;;1.40;;
12861;SDS011;6499;66.348;14.134;2023-07-31T11:16:45;1.90;;;1.53;;
12861;SDS011;6499;66.348;14.134;2023-07-31T11:19:12;1.37;;;1.27;;
12861;SDS011;6499;66.348;14.134;2023-07-31T11:21:38;2.17;;;1.30;;
12861;SDS011;6499;66.348;14.134;2023-07-31T11:24:05;1.30;;;1.20;;
12861;SDS011;6499;66.348;14.134;2023-07-31T11:26:31;1.53;;;1.43;;
12861;SDS011;6499;66.348;14.134;2023-07-31T11:28:58;1.60;;;1.50;;
12861;SDS011;6499;66.348;14.134;2023-07-31T11:31:26;3.23;;;1.47;;
12861;SDS011;6499;66.348;14.134;2023-07-31T11:34:03;1.40;;;1.30;;
12861;SDS011;6499;66.348;14.134;2023-07-31T11:36:30;1.60;;;1.50;;
12861;SDS011;6499;66.348;14.134;2023-07-31T11:39:04;1.80;;;1.37;;
12861;SDS011;6499;66.348;14.134;2023-07-31T11:41:30;1.43;;;1.33;;
12861;SDS011;6499;66.348;14.134;2023-07-31T11:43:59;1.50;;;1.40;;
12861;SDS011;6499;66.348;14.134;2023-07-31T11:46:27;1.73;;;1.63;;
12861;SDS011;6499;66.348;14.134;2023-07-31T11:48:55;1.50;;;1.40;;
12861;SDS011;6499;66.348;14.134;2023-07-31T11:51:25;1.60;;;1.50;;
12861;SDS011;6499;66.348;14.134;2023-07-31T11:53:52;1.50;;;1.40;;
12861;SDS011;6499;66.348;14.134;2023-07-31T11:56:20;1.60;;;1.50;;
12861;SDS011;6499;66.348;14.134;2023-07-31T11:58:48;1.20;;;1.07;;
12861;SDS011;6499;66.348;14.134;2023-07-31T12:01:15;1.57;;;1.43;;
12861;SDS011;6499;66.348;14.134;2023-07-31T12:03:43;2.03;;;1.50;;
12861;SDS011;6499;66.348;14.134;2023-07-31T12:06:10;1.40;;;1.30;;
12861;SDS011;6499;66.348;14.134;2023-07-31T12:08:37;1.20;;;1.20;;
12861;SDS011;6499;66.348;14.134;2023-07-31T12:11:04;1.60;;;1.50;;
12861;SDS011;6499;66.348;14.134;2023-07-31T12:13:30;1.57;;;1.47;;
12861;SDS011;6499;66.348;14.134;2023-07-31T12:15:58;2.00;;;1.80;;
12861;SDS011;6499;66.348;14.134;2023-07-31T12:18:25;1.50;;;1.40;;
12861;SDS011;6499;66.348;14.134;2023-07-31T12:20:55;1.40;;;1.30;;
12861;SDS011;6499;66.348;14.134;2023-07-31T12:23:22;1.60;;;1.50;;
12861;SDS011;6499;66.348;14.134;2023-07-31T12:25:59;1.60;;;1.50;;
12861;SDS011;6499;66.348;14.134;2023-07-31T12:28:26;1.90;;;1.80;;
12861;SDS011;6499;66.348;14.134;2023-07-31T12:30:56;1.67;;;1.40;;
12861;SDS011;6499;66.348;14.134;2023-07-31T12:33:23;1.80;;;1.70;;
12861;SDS011;6499;66.348;14.134;2023-07-31T12:35:49;1.40;;;1.30;;
12861;SDS011;6499;66.348;14.134;2023-07-31T12:38:17;1.60;;;1.50;;
12861;SDS011;6499;66.348;14.134;2023-07-31T12:40:44;1.70;;;1.60;;
12861;SDS011;6499;66.348;14.134;2023-07-31T12:43:10;1.50;;;1.40;;
12861;SDS011;6499;66.348;14.134;2023-07-31T12:45:37;1.80;;;1.70;;
12861;SDS011;6499;66.348;14.134;2023-07-31T12:48:03;1.53;;;1.30;;
12861;SDS011;6499;66.348;14.134;2023-07-31T12:50:30;1.77;;;1.67;;
12861;SDS011;6499;66.348;14.134;2023-07-31T12:52:57;1.50;;;1.40;;
12861;SDS011;6499;66.348;14.134;2023-07-31T12:55:25;2.00;;;1.50;;
12861;SDS011;6499;66.348;14.134;2023-07-31T12:57:53;2.63;;;1.73;;
12861;SDS011;6499;66.348;14.134;2023-07-31T13:00:19;1.70;;;1.60;;
12861;SDS011;6499;66.348;14.134;2023-07-31T13:02:46;1.80;;;1.70;;
12861;SDS011;6499;66.348;14.134;2023-07-31T13:05:12;1.80;;;1.70;;
12861;SDS011;6499;66.348;14.134;2023-07-31T13:07:39;1.70;;;1.60;;
12861;SDS011;6499;66.348;14.134;2023-07-31T13:10:06;2.47;;;1.57;;
12861;SDS011;6499;66.348;14.134;2023-07-31T13:12:34;1.70;;;1.60;;
12861;SDS011;6499;66.348;14.134;2023-07-31T13:15:00;1.90;;;1.80;;
12861;SDS011;6499;66.348;14.134;2023-07-31T13:17:27;1.70;;;1.60;;
12861;SDS011;6499;66.348;14.134;2023-07-31T13:19:53;1.57;;;1.47;;
12861;SDS011;6499;66.348;14.134;2023-07-31T13:22:20;1.80;;;1.70;;
12861;SDS011;6499;66.348;14.134;2023-07-31T13:24:46;2.00;;;1.90;;
12861;SDS011;6499;66.348;14.134;2023-07-31T13:27:13;1.70;;;1.60;;
12861;SDS011;6499;66.348;14.134;2023-07-31T13:29:43;1.70;;;1.60;;
12861;SDS011;6499;66.348;14.134;2023-07-31T13:32:09;1.60;;;1.50;;
12861;SDS011;6499;66.348;14.134;2023-07-31T13:34:36;1.90;;;1.80;;
12861;SDS011;6499;66.348;14.134;2023-07-31T13:37:03;1.50;;;1.40;;
12861;SDS011;6499;66.348;14.134;2023-07-31T13:39:31;1.80;;;1.70;;
12861;SDS011;6499;66.348;14.134;2023-07-31T13:41:57;2.20;;;1.70;;
12861;SDS011;6499;66.348;14.134;2023-07-31T13:44:24;1.77;;;1.67;;
12861;SDS011;6499;66.348;14.134;2023-07-31T13:46:52;2.30;;;1.90;;
12861;SDS011;6499;66.348;14.134;2023-07-31T13:49:19;1.60;;;1.50;;
12861;SDS011;6499;66.348;14.134;2023-07-31T13:51:45;1.73;;;1.60;;
12861;SDS011;6499;66.348;14.134;2023-07-31T13:54:12;1.70;;;1.40;;
12861;SDS011;6499;66.348;14.134;2023-07-31T13:56:40;1.63;;;1.53;;
12861;SDS011;6499;66.348;14.134;2023-07-31T13:59:06;1.90;;;1.80;;
12861;SDS011;6499;66.348;14.134;2023-07-31T14:01:33;1.90;;;1.80;;
12861;SDS011;6499;66.348;14.134;2023-07-31T14:04:01;2.00;;;1.90;;
12861;SDS011;6499;66.348;14.134;2023-07-31T14:06:27;1.77;;;1.67;;
12861;SDS011;6499;66.348;14.134;2023-07-31T14:08:54;1.60;;;1.50;;
12861;SDS011;6499;66.348;14.134;2023-07-31T14:11:20;2.00;;;1.90;;
12861;SDS011;6499;66.348;14.134;2023-07-31T14:13:47;1.90;;;1.80;;
12861;SDS011;6499;66.348;14.134;2023-07-31T14:16:13;1.90;;;1.80;;
12861;SDS011;6499;66.348;14.134;2023-07-31T14:18:40;2.30;;;1.80;;
12861;SDS011;6499;66.348;14.134;2023-07-31T14:21:08;1.87;;;1.77;;
12861;SDS011;6499;66.348;14.134;2023-07-31T14:23:34;1.97;;;1.87;;
12861;SDS011;6499;66.348;14.134;2023-07-31T14:26:01;1.87;;;1.77;;
12861;SDS011;6499;66.348;14.134;2023-07-31T14:28:27;1.90;;;1.80;;
12861;SDS011;6499;66.348;14.134;2023-07-31T14:30:54;1.60;;;1.50;;
12861;SDS011;6499;66.348;14.134;2023-07-31T14:33:20;1.87;;;1.77;;
12861;SDS011;6499;66.348;14.134;2023-07-31T14:35:47;2.00;;;1.80;;
12861;SDS011;6499;66.348;14.134;2023-07-31T14:38:15;1.90;;;1.80;;
12861;SDS011;6499;66.348;14.134;2023-07-31T14:40:42;1.97;;;1.87;;
12861;SDS011;6499;66.348;14.134;2023-07-31T14:43:08;3.00;;;1.60;;
12861;SDS011;6499;66.348;14.134;2023-07-31T14:45:35;5.33;;;2.30;;
12861;SDS011;6499;66.348;14.134;2023-07-31T14:48:01;3.33;;;2.00;;
12861;SDS011;6499;66.348;14.134;2023-07-31T14:50:28;2.30;;;2.03;;